sensor_id;sensor_type;location;lat;lon;timestamp;P1;durP1;ratioP1;P2;durP2;ratioP2
22995;SDS011;11664;49.774;8.650;2024-03-23T00:57:00;11.40;;;5.70;;
22995;SDS011;11664;49.774;8.650;2024-03-23T00:59:32;11.25;;;6.40;;
22995;SDS011;11664;49.774;8.650;2024-03-23T01:01:57;10.75;;;6.13;;
22995;SDS011;11664;49.774;8.650;2024-03-23T01:04:23;8.57;;;5.75;;
22995;SDS011;11664;49.774;8.650;2024-03-23T01:07:00;9.93;;;6.10;;
22995;SDS011;11664;49.774;8.650;2024-03-23T01:09:26;9.23;;;7.10;;
22995;SDS011;11664;49.774;8.650;2024-03-23T01:11:51;8.43;;;6.57;;
22995;SDS011;11664;49.774;8.650;2024-03-23T01:14:25;9.45;;;7.03;;
22995;SDS011;11664;49.774;8.650;2024-03-23T01:16:50;11.67;;;6.33;;
22995;SDS011;11664;49.774;8.650;2024-03-23T01:19:19;12.23;;;6.13;;
22995;SDS011;11664;49.774;8.650;2024-03-23T01:21:47;10.63;;;7.97;;
22995;SDS011;11664;49.774;8.650;2024-03-23T01:24:20;12.38;;;7.57;;
22995;SDS011;11664;49.774;8.650;2024-03-23T01:26:45;9.10;;;8.13;;
22995;SDS011;11664;49.774;8.650;2024-03-23T01:29:11;14.77;;;8.18;;
22995;SDS011;11664;49.774;8.650;2024-03-23T01:31:39;11.70;;;9.25;;
22995;SDS011;11664;49.774;8.650;2024-03-23T01:34:11;12.68;;;11.30;;
22995;SDS011;11664;49.774;8.650;2024-03-23T01:36:40;18.30;;;16.77;;
22995;SDS011;11664;49.774;8.650;2024-03-23T01:39:15;24.00;;;22.00;;
22995;SDS011;11664;49.774;8.650;2024-03-23T01:41:41;26.98;;;24.60;;
22995;SDS011;11664;49.774;8.650;2024-03-23T01:44:08;22.92;;;21.15;;
22995;SDS011;11664;49.774;8.650;2024-03-23T01:46:37;24.92;;;22.98;;
22995;SDS011;11664;49.774;8.650;2024-03-23T01:49:09;18.88;;;17.27;;
22995;SDS011;11664;49.774;8.650;2024-03-23T01:51:35;16.35;;;11.18;;
22995;SDS011;11664;49.774;8.650;2024-03-23T01:54:08;11.55;;;10.27;;
22995;SDS011;11664;49.774;8.650;2024-03-23T01:56:34;9.25;;;6.25;;
22995;SDS011;11664;49.774;8.650;2024-03-23T01:59:06;10.25;;;5.65;;
22995;SDS011;11664;49.774;8.650;2024-03-23T02:01:32;11.43;;;7.78;;
22995;SDS011;11664;49.774;8.650;2024-03-23T02:04:01;12.10;;;11.02;;
22995;SDS011;11664;49.774;8.650;2024-03-23T02:06:32;15.93;;;14.63;;
22995;SDS011;11664;49.774;8.650;2024-03-23T02:08:58;12.40;;;9.48;;
22995;SDS011;11664;49.774;8.650;2024-03-23T02:11:31;10.07;;;7.63;;
22995;SDS011;11664;49.774;8.650;2024-03-23T02:13:56;9.40;;;6.78;;
22995;SDS011;11664;49.774;8.650;2024-03-23T02:16:26;9.93;;;6.93;;
22995;SDS011;11664;49.774;8.650;2024-03-23T02:18:51;7.75;;;6.90;;
22995;SDS011;11664;49.774;8.650;2024-03-23T02:21:17;9.63;;;6.55;;
22995;SDS011;11664;49.774;8.650;2024-03-23T02:23:45;7.07;;;5.50;;
22995;SDS011;11664;49.774;8.650;2024-03-23T02:26:17;9.02;;;6.00;;
22995;SDS011;11664;49.774;8.650;2024-03-23T02:28:42;9.38;;;7.03;;
22995;SDS011;11664;49.774;8.650;2024-03-23T02:31:11;7.50;;;5.80;;
22995;SDS011;11664;49.774;8.650;2024-03-23T02:33:42;7.15;;;6.05;;
22995;SDS011;11664;49.774;8.650;2024-03-23T02:36:10;9.03;;;5.80;;
22995;SDS011;11664;49.774;8.650;2024-03-23T02:38:39;9.13;;;6.40;;
22995;SDS011;11664;49.774;8.650;2024-03-23T02:41:05;10.70;;;6.63;;
22995;SDS011;11664;49.774;8.650;2024-03-23T02:43:33;7.90;;;5.43;;
22995;SDS011;11664;49.774;8.650;2024-03-23T02:45:59;8.65;;;5.80;;
22995;SDS011;11664;49.774;8.650;2024-03-23T02:48:32;11.30;;;6.55;;
22995;SDS011;11664;49.774;8.650;2024-03-23T02:50:58;8.55;;;6.43;;
22995;SDS011;11664;49.774;8.650;2024-03-23T02:53:29;11.02;;;6.75;;
22995;SDS011;11664;49.774;8.650;2024-03-23T02:55:58;10.80;;;6.30;;
22995;SDS011;11664;49.774;8.650;2024-03-23T02:58:24;8.55;;;6.10;;
22995;SDS011;11664;49.774;8.650;2024-03-23T03:00:49;10.57;;;6.70;;
22995;SDS011;11664;49.774;8.650;2024-03-23T03:03:18;9.40;;;6.35;;
22995;SDS011;11664;49.774;8.650;2024-03-23T03:05:46;12.30;;;7.38;;
22995;SDS011;11664;49.774;8.650;2024-03-23T03:08:12;11.30;;;7.65;;
22995;SDS011;11664;49.774;8.650;2024-03-23T03:10:37;12.02;;;7.82;;
22995;SDS011;11664;49.774;8.650;2024-03-23T03:13:12;11.05;;;6.72;;
22995;SDS011;11664;49.774;8.650;2024-03-23T03:15:37;9.38;;;6.65;;
22995;SDS011;11664;49.774;8.650;2024-03-23T03:18:05;9.98;;;7.25;;
22995;SDS011;11664;49.774;8.650;2024-03-23T03:20:34;11.60;;;7.20;;
22995;SDS011;11664;49.774;8.650;2024-03-23T03:23:05;12.75;;;7.13;;
22995;SDS011;11664;49.774;8.650;2024-03-23T03:25:31;8.65;;;6.38;;
22995;SDS011;11664;49.774;8.650;2024-03-23T03:28:00;11.80;;;6.38;;
22995;SDS011;11664;49.774;8.650;2024-03-23T03:30:26;12.15;;;7.03;;
22995;SDS011;11664;49.774;8.650;2024-03-23T03:33:01;15.57;;;8.68;;
22995;SDS011;11664;49.774;8.650;2024-03-23T03:35:30;11.25;;;8.68;;
22995;SDS011;11664;49.774;8.650;2024-03-23T03:37:55;11.50;;;8.27;;
22995;SDS011;11664;49.774;8.650;2024-03-23T03:40:27;15.88;;;10.25;;
22995;SDS011;11664;49.774;8.650;2024-03-23T03:42:52;13.85;;;8.80;;
22995;SDS011;11664;49.774;8.650;2024-03-23T03:45:18;14.73;;;8.73;;
22995;SDS011;11664;49.774;8.650;2024-03-23T03:47:46;11.80;;;8.07;;
22995;SDS011;11664;49.774;8.650;2024-03-23T03:50:14;15.68;;;8.55;;
22995;SDS011;11664;49.774;8.650;2024-03-23T03:52:39;13.68;;;7.15;;
22995;SDS011;11664;49.774;8.650;2024-03-23T03:55:12;23.38;;;7.78;;
22995;SDS011;11664;49.774;8.650;2024-03-23T03:57:39;14.57;;;7.80;;
22995;SDS011;11664;49.774;8.650;2024-03-23T04:00:05;16.38;;;8.57;;
22995;SDS011;11664;49.774;8.650;2024-03-23T04:02:37;13.13;;;7.85;;
22995;SDS011;11664;49.774;8.650;2024-03-23T04:05:06;11.25;;;7.65;;
22995;SDS011;11664;49.774;8.650;2024-03-23T04:07:33;13.20;;;8.82;;
22995;SDS011;11664;49.774;8.650;2024-03-23T04:09:59;17.92;;;8.27;;
22995;SDS011;11664;49.774;8.650;2024-03-23T04:12:27;13.20;;;8.05;;
22995;SDS011;11664;49.774;8.650;2024-03-23T04:14:53;15.02;;;9.27;;
22995;SDS011;11664;49.774;8.650;2024-03-23T04:17:18;13.30;;;7.75;;
22995;SDS011;11664;49.774;8.650;2024-03-23T04:19:44;11.63;;;7.78;;
22995;SDS011;11664;49.774;8.650;2024-03-23T04:22:19;15.30;;;7.82;;
22995;SDS011;11664;49.774;8.650;2024-03-23T04:24:54;13.85;;;8.20;;
22995;SDS011;11664;49.774;8.650;2024-03-23T04:27:26;14.63;;;8.48;;
22995;SDS011;11664;49.774;8.650;2024-03-23T04:29:52;14.05;;;8.65;;
22995;SDS011;11664;49.774;8.650;2024-03-23T04:32:27;17.15;;;8.15;;
22995;SDS011;11664;49.774;8.650;2024-03-23T04:35:02;21.65;;;10.82;;
22995;SDS011;11664;49.774;8.650;2024-03-23T04:37:36;15.70;;;11.55;;
22995;SDS011;11664;49.774;8.650;2024-03-23T04:40:03;16.00;;;11.80;;
22995;SDS011;11664;49.774;8.650;2024-03-23T04:42:29;18.20;;;10.93;;
22995;SDS011;11664;49.774;8.650;2024-03-23T04:44:55;16.35;;;11.13;;
22995;SDS011;11664;49.774;8.650;2024-03-23T04:47:20;21.23;;;17.58;;
22995;SDS011;11664;49.774;8.650;2024-03-23T04:49:46;20.38;;;13.32;;
22995;SDS011;11664;49.774;8.650;2024-03-23T04:52:15;12.95;;;10.93;;
22995;SDS011;11664;49.774;8.650;2024-03-23T04:54:42;13.50;;;7.80;;
22995;SDS011;11664;49.774;8.650;2024-03-23T04:57:11;10.32;;;8.38;;
22995;SDS011;11664;49.774;8.650;2024-03-23T04:59:36;13.88;;;11.20;;
22995;SDS011;11664;49.774;8.650;2024-03-23T05:02:17;10.63;;;9.60;;
22995;SDS011;11664;49.774;8.650;2024-03-23T05:04:42;12.32;;;11.23;;
22995;SDS011;11664;49.774;8.650;2024-03-23T05:07:11;13.05;;;11.85;;
22995;SDS011;11664;49.774;8.650;2024-03-23T05:09:36;11.48;;;10.38;;
22995;SDS011;11664;49.774;8.650;2024-03-23T05:12:05;12.15;;;10.65;;
22995;SDS011;11664;49.774;8.650;2024-03-23T05:14:33;10.65;;;9.80;;
22995;SDS011;11664;49.774;8.650;2024-03-23T05:17:14;8.60;;;7.88;;
22995;SDS011;11664;49.774;8.650;2024-03-23T05:19:46;8.70;;;8.13;;
22995;SDS011;11664;49.774;8.650;2024-03-23T05:22:17;7.07;;;6.47;;
22995;SDS011;11664;49.774;8.650;2024-03-23T05:24:49;6.32;;;5.78;;
22995;SDS011;11664;49.774;8.650;2024-03-23T05:27:15;6.32;;;5.82;;
22995;SDS011;11664;49.774;8.650;2024-03-23T05:29:46;9.00;;;8.50;;
22995;SDS011;11664;49.774;8.650;2024-03-23T05:32:15;8.35;;;7.85;;
22995;SDS011;11664;49.774;8.650;2024-03-23T05:34:43;7.65;;;7.15;;
22995;SDS011;11664;49.774;8.650;2024-03-23T05:37:15;8.93;;;8.23;;
22995;SDS011;11664;49.774;8.650;2024-03-23T05:39:44;5.38;;;5.07;;
22995;SDS011;11664;49.774;8.650;2024-03-23T05:42:09;8.05;;;7.35;;
22995;SDS011;11664;49.774;8.650;2024-03-23T05:44:35;11.18;;;10.48;;
22995;SDS011;11664;49.774;8.650;2024-03-23T05:47:00;6.30;;;5.88;;
22995;SDS011;11664;49.774;8.650;2024-03-23T05:49:29;10.60;;;10.00;;
22995;SDS011;11664;49.774;8.650;2024-03-23T05:52:00;8.40;;;7.80;;
22995;SDS011;11664;49.774;8.650;2024-03-23T05:54:32;6.45;;;6.07;;
22995;SDS011;11664;49.774;8.650;2024-03-23T05:56:57;7.50;;;7.00;;
22995;SDS011;11664;49.774;8.650;2024-03-23T05:59:25;8.77;;;8.27;;
22995;SDS011;11664;49.774;8.650;2024-03-23T06:01:52;7.32;;;6.82;;
22995;SDS011;11664;49.774;8.650;2024-03-23T06:04:26;8.82;;;8.10;;
22995;SDS011;11664;49.774;8.650;2024-03-23T06:06:55;8.13;;;7.63;;
22995;SDS011;11664;49.774;8.650;2024-03-23T06:09:29;8.25;;;7.75;;
22995;SDS011;11664;49.774;8.650;2024-03-23T06:11:59;13.50;;;12.70;;
22995;SDS011;11664;49.774;8.650;2024-03-23T06:14:27;11.60;;;10.73;;
22995;SDS011;11664;49.774;8.650;2024-03-23T06:16:56;6.18;;;5.70;;
22995;SDS011;11664;49.774;8.650;2024-03-23T06:19:22;5.80;;;5.40;;
22995;SDS011;11664;49.774;8.650;2024-03-23T06:21:50;6.80;;;6.40;;
22995;SDS011;11664;49.774;8.650;2024-03-23T06:24:19;11.50;;;10.80;;
22995;SDS011;11664;49.774;8.650;2024-03-23T06:26:53;6.43;;;5.95;;
22995;SDS011;11664;49.774;8.650;2024-03-23T06:29:19;7.80;;;7.30;;
22995;SDS011;11664;49.774;8.650;2024-03-23T06:31:44;5.75;;;5.40;;
22995;SDS011;11664;49.774;8.650;2024-03-23T06:37:02;4.63;;;4.32;;
22995;SDS011;11664;49.774;8.650;2024-03-23T06:39:28;13.38;;;12.70;;
22995;SDS011;11664;49.774;8.650;2024-03-23T06:41:54;14.98;;;14.18;;
22995;SDS011;11664;49.774;8.650;2024-03-23T06:44:26;5.25;;;5.00;;
22995;SDS011;11664;49.774;8.650;2024-03-23T06:46:55;6.78;;;6.40;;
22995;SDS011;11664;49.774;8.650;2024-03-23T06:49:26;4.53;;;4.25;;
22995;SDS011;11664;49.774;8.650;2024-03-23T06:51:52;6.03;;;5.72;;
22995;SDS011;11664;49.774;8.650;2024-03-23T06:54:33;8.27;;;7.88;;
22995;SDS011;11664;49.774;8.650;2024-03-23T06:56:58;10.32;;;9.82;;
22995;SDS011;11664;49.774;8.650;2024-03-23T06:59:27;8.43;;;8.02;;
22995;SDS011;11664;49.774;8.650;2024-03-23T07:01:55;13.98;;;13.25;;
22995;SDS011;11664;49.774;8.650;2024-03-23T07:04:21;9.48;;;8.98;;
22995;SDS011;11664;49.774;8.650;2024-03-23T07:06:49;6.32;;;5.82;;
22995;SDS011;11664;49.774;8.650;2024-03-23T07:09:18;4.32;;;4.13;;
22995;SDS011;11664;49.774;8.650;2024-03-23T07:11:44;47.45;;;44.90;;
22995;SDS011;11664;49.774;8.650;2024-03-23T07:14:16;50.03;;;47.35;;
22995;SDS011;11664;49.774;8.650;2024-03-23T07:16:44;13.02;;;12.32;;
22995;SDS011;11664;49.774;8.650;2024-03-23T07:19:10;16.00;;;15.23;;
22995;SDS011;11664;49.774;8.650;2024-03-23T07:21:42;13.50;;;12.82;;
22995;SDS011;11664;49.774;8.650;2024-03-23T07:24:11;13.48;;;12.77;;
22995;SDS011;11664;49.774;8.650;2024-03-23T07:26:37;11.88;;;11.27;;
22995;SDS011;11664;49.774;8.650;2024-03-23T07:29:12;6.65;;;6.35;;
22995;SDS011;11664;49.774;8.650;2024-03-23T07:31:43;15.40;;;14.63;;
22995;SDS011;11664;49.774;8.650;2024-03-23T07:34:18;11.63;;;11.00;;
22995;SDS011;11664;49.774;8.650;2024-03-23T07:36:53;12.43;;;11.73;;
22995;SDS011;11664;49.774;8.650;2024-03-23T07:39:27;10.07;;;9.48;;
22995;SDS011;11664;49.774;8.650;2024-03-23T07:41:55;38.73;;;36.63;;
22995;SDS011;11664;49.774;8.650;2024-03-23T07:44:21;11.23;;;10.23;;
22995;SDS011;11664;49.774;8.650;2024-03-23T07:46:46;21.77;;;20.60;;
22995;SDS011;11664;49.774;8.650;2024-03-23T07:49:12;13.30;;;12.57;;
22995;SDS011;11664;49.774;8.650;2024-03-23T07:51:40;18.58;;;17.45;;
22995;SDS011;11664;49.774;8.650;2024-03-23T07:54:06;7.70;;;7.28;;
22995;SDS011;11664;49.774;8.650;2024-03-23T07:56:32;9.45;;;8.52;;
22995;SDS011;11664;49.774;8.650;2024-03-23T07:58:57;13.23;;;12.32;;
22995;SDS011;11664;49.774;8.650;2024-03-23T08:01:23;6.95;;;6.35;;
22995;SDS011;11664;49.774;8.650;2024-03-23T08:03:51;9.23;;;8.52;;
22995;SDS011;11664;49.774;8.650;2024-03-23T08:06:18;10.05;;;9.45;;
22995;SDS011;11664;49.774;8.650;2024-03-23T08:08:46;7.70;;;6.95;;
22995;SDS011;11664;49.774;8.650;2024-03-23T08:11:14;7.97;;;7.47;;
22995;SDS011;11664;49.774;8.650;2024-03-23T08:13:40;5.28;;;4.97;;
22995;SDS011;11664;49.774;8.650;2024-03-23T08:16:06;7.05;;;6.55;;
22995;SDS011;11664;49.774;8.650;2024-03-23T08:18:34;6.22;;;5.82;;
22995;SDS011;11664;49.774;8.650;2024-03-23T08:21:03;8.60;;;6.70;;
22995;SDS011;11664;49.774;8.650;2024-03-23T08:23:33;7.55;;;6.95;;
22995;SDS011;11664;49.774;8.650;2024-03-23T08:26:07;11.40;;;10.48;;
22995;SDS011;11664;49.774;8.650;2024-03-23T08:28:37;12.93;;;12.15;;
22995;SDS011;11664;49.774;8.650;2024-03-23T08:31:18;6.18;;;5.68;;
22995;SDS011;11664;49.774;8.650;2024-03-23T08:33:43;6.70;;;5.45;;
22995;SDS011;11664;49.774;8.650;2024-03-23T08:36:10;6.50;;;5.82;;
22995;SDS011;11664;49.774;8.650;2024-03-23T08:38:39;7.55;;;6.85;;
22995;SDS011;11664;49.774;8.650;2024-03-23T08:41:06;5.57;;;5.18;;
22995;SDS011;11664;49.774;8.650;2024-03-23T08:43:44;5.28;;;4.93;;
22995;SDS011;11664;49.774;8.650;2024-03-23T08:46:11;5.63;;;5.07;;
22995;SDS011;11664;49.774;8.650;2024-03-23T08:48:38;4.70;;;4.40;;
22995;SDS011;11664;49.774;8.650;2024-03-23T08:51:05;7.20;;;6.45;;
22995;SDS011;11664;49.774;8.650;2024-03-23T08:53:32;5.45;;;4.78;;
22995;SDS011;11664;49.774;8.650;2024-03-23T08:55:59;5.85;;;5.32;;
22995;SDS011;11664;49.774;8.650;2024-03-23T08:58:26;5.80;;;4.70;;
22995;SDS011;11664;49.774;8.650;2024-03-23T09:01:09;5.78;;;5.15;;
22995;SDS011;11664;49.774;8.650;2024-03-23T09:06:02;5.43;;;4.93;;
22995;SDS011;11664;49.774;8.650;2024-03-23T09:08:31;6.70;;;5.90;;
22995;SDS011;11664;49.774;8.650;2024-03-23T09:11:03;5.97;;;4.88;;
22995;SDS011;11664;49.774;8.650;2024-03-23T09:13:34;5.55;;;5.07;;
22995;SDS011;11664;49.774;8.650;2024-03-23T09:16:00;6.45;;;4.88;;
22995;SDS011;11664;49.774;8.650;2024-03-23T09:18:31;5.65;;;5.25;;
22995;SDS011;11664;49.774;8.650;2024-03-23T09:20:57;6.37;;;5.33;;
22995;SDS011;11664;49.774;8.650;2024-03-23T09:23:23;5.57;;;5.07;;
22995;SDS011;11664;49.774;8.650;2024-03-23T09:25:48;8.43;;;7.93;;
22995;SDS011;11664;49.774;8.650;2024-03-23T09:28:14;7.07;;;5.88;;
22995;SDS011;11664;49.774;8.650;2024-03-23T09:30:43;6.72;;;6.30;;
22995;SDS011;11664;49.774;8.650;2024-03-23T09:33:09;8.48;;;6.05;;
22995;SDS011;11664;49.774;8.650;2024-03-23T09:35:47;5.65;;;5.15;;
22995;SDS011;11664;49.774;8.650;2024-03-23T09:38:20;4.78;;;4.28;;
22995;SDS011;11664;49.774;8.650;2024-03-23T09:40:58;9.20;;;5.05;;
22995;SDS011;11664;49.774;8.650;2024-03-23T09:43:25;6.40;;;4.32;;
22995;SDS011;11664;49.774;8.650;2024-03-23T09:45:51;4.68;;;4.28;;
22995;SDS011;11664;49.774;8.650;2024-03-23T09:48:20;3.83;;;3.42;;
22995;SDS011;11664;49.774;8.650;2024-03-23T09:50:47;7.85;;;3.25;;
22995;SDS011;11664;49.774;8.650;2024-03-23T09:53:19;4.55;;;3.35;;
22995;SDS011;11664;49.774;8.650;2024-03-23T09:55:50;5.28;;;3.38;;
22995;SDS011;11664;49.774;8.650;2024-03-23T09:58:16;5.72;;;3.97;;
22995;SDS011;11664;49.774;8.650;2024-03-23T10:00:43;4.43;;;3.15;;
22995;SDS011;11664;49.774;8.650;2024-03-23T10:03:09;3.35;;;2.80;;
22995;SDS011;11664;49.774;8.650;2024-03-23T10:05:37;4.97;;;3.70;;
22995;SDS011;11664;49.774;8.650;2024-03-23T10:08:17;5.57;;;3.40;;
22995;SDS011;11664;49.774;8.650;2024-03-23T10:10:45;5.00;;;3.33;;
22995;SDS011;11664;49.774;8.650;2024-03-23T10:13:11;3.58;;;3.00;;
22995;SDS011;11664;49.774;8.650;2024-03-23T10:15:54;4.43;;;3.40;;
22995;SDS011;11664;49.774;8.650;2024-03-23T10:18:26;6.10;;;3.45;;
22995;SDS011;11664;49.774;8.650;2024-03-23T10:21:06;6.43;;;3.17;;
22995;SDS011;11664;49.774;8.650;2024-03-23T10:23:35;5.10;;;3.97;;
22995;SDS011;11664;49.774;8.650;2024-03-23T10:26:14;3.85;;;3.55;;
22995;SDS011;11664;49.774;8.650;2024-03-23T10:28:56;3.53;;;3.22;;
22995;SDS011;11664;49.774;8.650;2024-03-23T10:31:26;12.43;;;3.35;;
22995;SDS011;11664;49.774;8.650;2024-03-23T10:33:53;5.28;;;3.22;;
22995;SDS011;11664;49.774;8.650;2024-03-23T10:36:26;3.60;;;2.70;;
22995;SDS011;11664;49.774;8.650;2024-03-23T10:38:54;3.67;;;2.65;;
22995;SDS011;11664;49.774;8.650;2024-03-23T10:41:20;5.88;;;4.20;;
22995;SDS011;11664;49.774;8.650;2024-03-23T10:43:51;5.18;;;3.53;;
22995;SDS011;11664;49.774;8.650;2024-03-23T10:46:26;4.20;;;3.15;;
22995;SDS011;11664;49.774;8.650;2024-03-23T10:48:51;5.75;;;2.72;;
22995;SDS011;11664;49.774;8.650;2024-03-23T10:51:17;3.83;;;3.03;;
22995;SDS011;11664;49.774;8.650;2024-03-23T10:53:46;10.32;;;9.32;;
22995;SDS011;11664;49.774;8.650;2024-03-23T10:56:12;5.35;;;3.40;;
22995;SDS011;11664;49.774;8.650;2024-03-23T10:58:49;3.85;;;3.55;;
22995;SDS011;11664;49.774;8.650;2024-03-23T11:01:15;3.60;;;3.30;;
22995;SDS011;11664;49.774;8.650;2024-03-23T11:03:45;4.90;;;4.35;;
22995;SDS011;11664;49.774;8.650;2024-03-23T11:06:11;9.98;;;6.45;;
22995;SDS011;11664;49.774;8.650;2024-03-23T11:08:59;5.78;;;4.72;;
22995;SDS011;11664;49.774;8.650;2024-03-23T11:11:24;4.45;;;4.15;;
22995;SDS011;11664;49.774;8.650;2024-03-23T11:13:51;8.23;;;3.80;;
22995;SDS011;11664;49.774;8.650;2024-03-23T11:16:21;5.75;;;4.38;;
22995;SDS011;11664;49.774;8.650;2024-03-23T11:22:05;7.45;;;6.95;;
22995;SDS011;11664;49.774;8.650;2024-03-23T11:24:31;6.40;;;5.90;;
22995;SDS011;11664;49.774;8.650;2024-03-23T11:26:57;5.53;;;5.05;;
22995;SDS011;11664;49.774;8.650;2024-03-23T11:29:31;7.13;;;6.50;;
22995;SDS011;11664;49.774;8.650;2024-03-23T11:31:57;10.82;;;5.75;;
22995;SDS011;11664;49.774;8.650;2024-03-23T11:34:23;6.68;;;6.15;;
22995;SDS011;11664;49.774;8.650;2024-03-23T11:36:49;7.90;;;7.30;;
22995;SDS011;11664;49.774;8.650;2024-03-23T11:39:16;5.93;;;5.38;;
22995;SDS011;11664;49.774;8.650;2024-03-23T11:41:52;4.53;;;4.13;;
22995;SDS011;11664;49.774;8.650;2024-03-23T11:44:19;3.30;;;3.10;;
22995;SDS011;11664;49.774;8.650;2024-03-23T11:46:46;5.65;;;3.30;;
22995;SDS011;11664;49.774;8.650;2024-03-23T11:49:30;3.88;;;3.53;;
22995;SDS011;11664;49.774;8.650;2024-03-23T11:52:01;4.40;;;4.20;;
22995;SDS011;11664;49.774;8.650;2024-03-23T11:54:27;7.80;;;5.32;;
22995;SDS011;11664;49.774;8.650;2024-03-23T11:56:59;4.30;;;4.03;;
22995;SDS011;11664;49.774;8.650;2024-03-23T11:59:35;4.45;;;4.25;;
22995;SDS011;11664;49.774;8.650;2024-03-23T12:02:06;4.00;;;3.80;;
22995;SDS011;11664;49.774;8.650;2024-03-23T12:04:32;3.38;;;3.08;;
22995;SDS011;11664;49.774;8.650;2024-03-23T12:07:17;3.10;;;2.90;;
22995;SDS011;11664;49.774;8.650;2024-03-23T12:09:43;3.22;;;2.85;;
22995;SDS011;11664;49.774;8.650;2024-03-23T12:12:14;3.13;;;2.80;;
22995;SDS011;11664;49.774;8.650;2024-03-23T12:14:44;3.58;;;3.28;;
22995;SDS011;11664;49.774;8.650;2024-03-23T12:17:25;3.92;;;3.72;;
22995;SDS011;11664;49.774;8.650;2024-03-23T12:19:51;3.83;;;2.55;;
22995;SDS011;11664;49.774;8.650;2024-03-23T12:22:20;3.00;;;2.70;;
22995;SDS011;11664;49.774;8.650;2024-03-23T12:24:45;3.42;;;3.15;;
22995;SDS011;11664;49.774;8.650;2024-03-23T12:27:11;2.72;;;2.53;;
22995;SDS011;11664;49.774;8.650;2024-03-23T12:29:37;2.72;;;2.50;;
22995;SDS011;11664;49.774;8.650;2024-03-23T12:32:04;3.03;;;2.50;;
22995;SDS011;11664;49.774;8.650;2024-03-23T12:34:30;2.58;;;2.38;;
22995;SDS011;11664;49.774;8.650;2024-03-23T12:36:56;5.10;;;2.85;;
22995;SDS011;11664;49.774;8.650;2024-03-23T12:39:24;2.72;;;2.50;;
22995;SDS011;11664;49.774;8.650;2024-03-23T12:41:56;2.75;;;2.55;;
22995;SDS011;11664;49.774;8.650;2024-03-23T12:44:28;4.80;;;2.80;;
22995;SDS011;11664;49.774;8.650;2024-03-23T12:46:56;3.38;;;3.08;;
22995;SDS011;11664;49.774;8.650;2024-03-23T12:49:25;3.53;;;3.22;;
22995;SDS011;11664;49.774;8.650;2024-03-23T12:51:54;4.00;;;3.33;;
22995;SDS011;11664;49.774;8.650;2024-03-23T12:54:21;3.95;;;3.65;;
22995;SDS011;11664;49.774;8.650;2024-03-23T12:56:50;3.92;;;3.67;;
22995;SDS011;11664;49.774;8.650;2024-03-23T12:59:16;3.50;;;3.30;;
22995;SDS011;11664;49.774;8.650;2024-03-23T13:01:43;8.10;;;4.10;;
22995;SDS011;11664;49.774;8.650;2024-03-23T13:04:14;6.67;;;5.63;;
22995;SDS011;11664;49.774;8.650;2024-03-23T13:06:41;6.80;;;4.32;;
22995;SDS011;11664;49.774;8.650;2024-03-23T13:09:06;5.30;;;5.00;;
22995;SDS011;11664;49.774;8.650;2024-03-23T13:11:41;5.55;;;5.10;;
22995;SDS011;11664;49.774;8.650;2024-03-23T13:14:07;5.80;;;5.40;;
22995;SDS011;11664;49.774;8.650;2024-03-23T13:16:35;4.57;;;4.18;;
22995;SDS011;11664;49.774;8.650;2024-03-23T13:19:04;5.03;;;4.63;;
22995;SDS011;11664;49.774;8.650;2024-03-23T13:21:32;4.72;;;3.33;;
22995;SDS011;11664;49.774;8.650;2024-03-23T13:23:58;7.57;;;6.00;;
22995;SDS011;11664;49.774;8.650;2024-03-23T13:26:23;5.00;;;4.70;;
22995;SDS011;11664;49.774;8.650;2024-03-23T13:28:49;4.07;;;3.78;;
22995;SDS011;11664;49.774;8.650;2024-03-23T13:31:14;4.80;;;4.60;;
22995;SDS011;11664;49.774;8.650;2024-03-23T13:33:40;4.40;;;4.20;;
22995;SDS011;11664;49.774;8.650;2024-03-23T13:36:10;5.05;;;4.80;;
22995;SDS011;11664;49.774;8.650;2024-03-23T13:38:35;5.07;;;4.88;;
22995;SDS011;11664;49.774;8.650;2024-03-23T13:41:04;3.63;;;3.33;;
22995;SDS011;11664;49.774;8.650;2024-03-23T13:43:34;3.70;;;3.50;;
22995;SDS011;11664;49.774;8.650;2024-03-23T13:46:03;2.85;;;2.70;;
22995;SDS011;11664;49.774;8.650;2024-03-23T13:48:31;5.35;;;5.10;;
22995;SDS011;11664;49.774;8.650;2024-03-23T13:51:00;2.70;;;2.60;;
22995;SDS011;11664;49.774;8.650;2024-03-23T13:53:27;2.90;;;2.70;;
22995;SDS011;11664;49.774;8.650;2024-03-23T13:55:56;3.20;;;3.10;;
22995;SDS011;11664;49.774;8.650;2024-03-23T13:58:24;3.28;;;3.08;;
22995;SDS011;11664;49.774;8.650;2024-03-23T14:00:52;2.70;;;2.60;;
22995;SDS011;11664;49.774;8.650;2024-03-23T14:03:27;3.30;;;2.97;;
22995;SDS011;11664;49.774;8.650;2024-03-23T14:05:57;3.20;;;2.90;;
22995;SDS011;11664;49.774;8.650;2024-03-23T14:08:23;2.42;;;2.30;;
22995;SDS011;11664;49.774;8.650;2024-03-23T14:10:48;2.67;;;2.58;;
22995;SDS011;11664;49.774;8.650;2024-03-23T14:13:14;2.65;;;2.55;;
22995;SDS011;11664;49.774;8.650;2024-03-23T14:15:40;3.15;;;2.85;;
22995;SDS011;11664;49.774;8.650;2024-03-23T14:18:08;3.47;;;3.17;;
22995;SDS011;11664;49.774;8.650;2024-03-23T14:20:34;3.00;;;2.47;;
22995;SDS011;11664;49.774;8.650;2024-03-23T14:22:59;2.97;;;2.88;;
22995;SDS011;11664;49.774;8.650;2024-03-23T14:25:25;3.60;;;3.30;;
22995;SDS011;11664;49.774;8.650;2024-03-23T14:27:54;3.42;;;3.13;;
22995;SDS011;11664;49.774;8.650;2024-03-23T14:30:20;2.35;;;2.25;;
22995;SDS011;11664;49.774;8.650;2024-03-23T14:32:45;2.88;;;2.67;;
22995;SDS011;11664;49.774;8.650;2024-03-23T14:35:13;2.90;;;2.80;;
22995;SDS011;11664;49.774;8.650;2024-03-23T14:37:42;3.15;;;2.97;;
22995;SDS011;11664;49.774;8.650;2024-03-23T14:40:08;2.97;;;2.67;;
22995;SDS011;11664;49.774;8.650;2024-03-23T14:42:33;3.03;;;2.90;;
22995;SDS011;11664;49.774;8.650;2024-03-23T14:45:02;3.53;;;3.08;;
22995;SDS011;11664;49.774;8.650;2024-03-23T14:47:31;4.22;;;3.92;;
22995;SDS011;11664;49.774;8.650;2024-03-23T14:49:56;2.70;;;2.55;;
22995;SDS011;11664;49.774;8.650;2024-03-23T14:52:26;2.25;;;2.15;;
22995;SDS011;11664;49.774;8.650;2024-03-23T14:54:53;2.97;;;2.65;;
22995;SDS011;11664;49.774;8.650;2024-03-23T14:57:27;4.10;;;2.63;;
22995;SDS011;11664;49.774;8.650;2024-03-23T15:00:07;3.58;;;3.38;;
22995;SDS011;11664;49.774;8.650;2024-03-23T15:02:35;3.83;;;3.58;;
22995;SDS011;11664;49.774;8.650;2024-03-23T15:05:07;4.32;;;3.92;;
22995;SDS011;11664;49.774;8.650;2024-03-23T15:07:36;3.03;;;2.60;;
22995;SDS011;11664;49.774;8.650;2024-03-23T15:10:05;2.53;;;2.42;;
22995;SDS011;11664;49.774;8.650;2024-03-23T15:12:37;3.03;;;2.92;;
22995;SDS011;11664;49.774;8.650;2024-03-23T15:15:06;3.95;;;3.75;;
22995;SDS011;11664;49.774;8.650;2024-03-23T15:17:32;2.90;;;2.80;;
22995;SDS011;11664;49.774;8.650;2024-03-23T15:20:05;3.53;;;3.33;;
22995;SDS011;11664;49.774;8.650;2024-03-23T15:22:34;4.20;;;4.00;;
22995;SDS011;11664;49.774;8.650;2024-03-23T15:24:59;4.70;;;4.40;;
22995;SDS011;11664;49.774;8.650;2024-03-23T15:27:25;3.45;;;3.25;;
22995;SDS011;11664;49.774;8.650;2024-03-23T15:29:50;4.22;;;3.92;;
22995;SDS011;11664;49.774;8.650;2024-03-23T15:32:16;4.95;;;4.65;;
22995;SDS011;11664;49.774;8.650;2024-03-23T15:34:43;4.55;;;4.25;;
22995;SDS011;11664;49.774;8.650;2024-03-23T15:37:08;3.05;;;2.67;;
22995;SDS011;11664;49.774;8.650;2024-03-23T15:39:34;2.47;;;2.38;;
22995;SDS011;11664;49.774;8.650;2024-03-23T15:41:59;2.95;;;2.85;;
22995;SDS011;11664;49.774;8.650;2024-03-23T15:44:25;3.90;;;3.70;;
22995;SDS011;11664;49.774;8.650;2024-03-23T15:46:50;3.22;;;3.03;;
22995;SDS011;11664;49.774;8.650;2024-03-23T15:49:19;2.90;;;2.80;;
22995;SDS011;11664;49.774;8.650;2024-03-23T15:51:44;3.58;;;3.35;;
22995;SDS011;11664;49.774;8.650;2024-03-23T15:54:10;4.13;;;3.92;;